sensor_id;sensor_type;location;lat;lon;timestamp;P1;durP1;ratioP1;P2;durP2;ratioP2
27728;SDS011;15126;42.186;24.340;2023-05-07T00:02:15;10.97;;;9.93;;
27728;SDS011;15126;42.186;24.340;2023-05-07T00:04:43;11.20;;;9.83;;
27728;SDS011;15126;42.186;24.340;2023-05-07T00:07:10;9.57;;;8.17;;
27728;SDS011;15126;42.186;24.340;2023-05-07T00:09:37;9.83;;;9.03;;
27728;SDS011;15126;42.186;24.340;2023-05-07T00:12:04;9.00;;;8.13;;
27728;SDS011;15126;42.186;24.340;2023-05-07T00:14:31;9.57;;;8.00;;
27728;SDS011;15126;42.186;24.340;2023-05-07T00:16:58;8.87;;;8.07;;
27728;SDS011;15126;42.186;24.340;2023-05-07T00:19:24;11.53;;;9.17;;
27728;SDS011;15126;42.186;24.340;2023-05-07T00:21:53;9.27;;;7.57;;
27728;SDS011;15126;42.186;24.340;2023-05-07T00:24:21;7.73;;;7.13;;
27728;SDS011;15126;42.186;24.340;2023-05-07T00:26:47;10.10;;;7.17;;
27728;SDS011;15126;42.186;24.340;2023-05-07T00:29:14;8.07;;;7.27;;
27728;SDS011;15126;42.186;24.340;2023-05-07T00:31:41;13.17;;;8.53;;
27728;SDS011;15126;42.186;24.340;2023-05-07T00:34:08;15.23;;;7.70;;
27728;SDS011;15126;42.186;24.340;2023-05-07T00:36:34;9.30;;;8.37;;
27728;SDS011;15126;42.186;24.340;2023-05-07T00:39:02;9.80;;;8.80;;
27728;SDS011;15126;42.186;24.340;2023-05-07T00:41:29;11.53;;;9.50;;
27728;SDS011;15126;42.186;24.340;2023-05-07T00:43:56;12.90;;;8.90;;
27728;SDS011;15126;42.186;24.340;2023-05-07T00:46:23;9.40;;;8.60;;
27728;SDS011;15126;42.186;24.340;2023-05-07T00:48:50;9.80;;;8.67;;
27728;SDS011;15126;42.186;24.340;2023-05-07T00:51:18;8.90;;;8.07;;
27728;SDS011;15126;42.186;24.340;2023-05-07T00:53:46;9.30;;;7.93;;
27728;SDS011;15126;42.186;24.340;2023-05-07T00:56:14;12.00;;;9.00;;
27728;SDS011;15126;42.186;24.340;2023-05-07T00:58:41;9.93;;;8.93;;
27728;SDS011;15126;42.186;24.340;2023-05-07T01:01:08;10.07;;;9.17;;
27728;SDS011;15126;42.186;24.340;2023-05-07T01:03:34;11.00;;;8.70;;
27728;SDS011;15126;42.186;24.340;2023-05-07T01:06:01;11.37;;;7.97;;
27728;SDS011;15126;42.186;24.340;2023-05-07T01:08:29;10.57;;;8.47;;
27728;SDS011;15126;42.186;24.340;2023-05-07T01:10:57;12.07;;;8.87;;
27728;SDS011;15126;42.186;24.340;2023-05-07T01:13:27;13.07;;;9.47;;
27728;SDS011;15126;42.186;24.340;2023-05-07T01:15:54;12.83;;;8.80;;
27728;SDS011;15126;42.186;24.340;2023-05-07T01:18:21;8.77;;;8.07;;
27728;SDS011;15126;42.186;24.340;2023-05-07T01:20:48;10.97;;;8.60;;
27728;SDS011;15126;42.186;24.340;2023-05-07T01:23:16;9.17;;;7.93;;
27728;SDS011;15126;42.186;24.340;2023-05-07T01:25:50;9.73;;;8.73;;
27728;SDS011;15126;42.186;24.340;2023-05-07T01:28:17;11.70;;;8.90;;
27728;SDS011;15126;42.186;24.340;2023-05-07T01:30:44;9.07;;;8.27;;
27728;SDS011;15126;42.186;24.340;2023-05-07T01:33:15;13.73;;;8.60;;
27728;SDS011;15126;42.186;24.340;2023-05-07T01:35:47;10.33;;;8.50;;
27728;SDS011;15126;42.186;24.340;2023-05-07T01:38:21;12.43;;;9.93;;
27728;SDS011;15126;42.186;24.340;2023-05-07T01:40:49;13.20;;;12.07;;
27728;SDS011;15126;42.186;24.340;2023-05-07T01:43:16;13.93;;;12.47;;
27728;SDS011;15126;42.186;24.340;2023-05-07T01:45:43;12.30;;;11.10;;
27728;SDS011;15126;42.186;24.340;2023-05-07T01:48:11;13.13;;;11.77;;
27728;SDS011;15126;42.186;24.340;2023-05-07T01:50:40;13.10;;;11.90;;
27728;SDS011;15126;42.186;24.340;2023-05-07T01:53:08;18.03;;;12.87;;
27728;SDS011;15126;42.186;24.340;2023-05-07T01:55:36;13.60;;;12.40;;
27728;SDS011;15126;42.186;24.340;2023-05-07T01:58:03;13.70;;;12.43;;
27728;SDS011;15126;42.186;24.340;2023-05-07T02:00:29;13.83;;;12.53;;
27728;SDS011;15126;42.186;24.340;2023-05-07T02:02:56;12.40;;;11.30;;
27728;SDS011;15126;42.186;24.340;2023-05-07T02:05:24;14.17;;;12.97;;
27728;SDS011;15126;42.186;24.340;2023-05-07T02:07:50;14.10;;;12.83;;
27728;SDS011;15126;42.186;24.340;2023-05-07T02:10:17;14.97;;;12.17;;
27728;SDS011;15126;42.186;24.340;2023-05-07T02:12:45;16.37;;;12.93;;
27728;SDS011;15126;42.186;24.340;2023-05-07T02:15:12;13.97;;;12.57;;
27728;SDS011;15126;42.186;24.340;2023-05-07T02:17:39;14.67;;;13.10;;
27728;SDS011;15126;42.186;24.340;2023-05-07T02:20:25;14.57;;;13.20;;
27728;SDS011;15126;42.186;24.340;2023-05-07T02:22:52;14.27;;;12.77;;
27728;SDS011;15126;42.186;24.340;2023-05-07T02:25:18;15.03;;;13.33;;
27728;SDS011;15126;42.186;24.340;2023-05-07T02:27:47;15.53;;;11.93;;
27728;SDS011;15126;42.186;24.340;2023-05-07T02:30:13;13.40;;;12.07;;
27728;SDS011;15126;42.186;24.340;2023-05-07T02:32:41;15.40;;;14.00;;
27728;SDS011;15126;42.186;24.340;2023-05-07T02:35:07;14.43;;;13.17;;
27728;SDS011;15126;42.186;24.340;2023-05-07T02:37:34;14.87;;;13.60;;
27728;SDS011;15126;42.186;24.340;2023-05-07T02:40:01;13.37;;;12.10;;
27728;SDS011;15126;42.186;24.340;2023-05-07T02:42:30;14.53;;;13.17;;
27728;SDS011;15126;42.186;24.340;2023-05-07T02:44:58;25.27;;;14.43;;
27728;SDS011;15126;42.186;24.340;2023-05-07T02:47:25;14.00;;;12.83;;
27728;SDS011;15126;42.186;24.340;2023-05-07T02:49:53;14.03;;;12.73;;
27728;SDS011;15126;42.186;24.340;2023-05-07T02:52:20;15.57;;;13.07;;
27728;SDS011;15126;42.186;24.340;2023-05-07T02:54:47;15.50;;;13.80;;
27728;SDS011;15126;42.186;24.340;2023-05-07T02:57:14;16.90;;;15.10;;
27728;SDS011;15126;42.186;24.340;2023-05-07T02:59:41;15.47;;;13.70;;
27728;SDS011;15126;42.186;24.340;2023-05-07T03:02:09;16.83;;;14.83;;
27728;SDS011;15126;42.186;24.340;2023-05-07T03:04:36;15.40;;;14.10;;
27728;SDS011;15126;42.186;24.340;2023-05-07T03:07:03;15.87;;;14.30;;
27728;SDS011;15126;42.186;24.340;2023-05-07T03:09:29;15.97;;;14.37;;
27728;SDS011;15126;42.186;24.340;2023-05-07T03:11:56;13.17;;;12.17;;
27728;SDS011;15126;42.186;24.340;2023-05-07T03:14:23;16.33;;;14.37;;
27728;SDS011;15126;42.186;24.340;2023-05-07T03:16:50;15.60;;;14.23;;
27728;SDS011;15126;42.186;24.340;2023-05-07T03:19:18;17.73;;;13.97;;
27728;SDS011;15126;42.186;24.340;2023-05-07T03:21:45;15.13;;;13.73;;
27728;SDS011;15126;42.186;24.340;2023-05-07T03:24:12;16.83;;;15.37;;
27728;SDS011;15126;42.186;24.340;2023-05-07T03:26:39;17.87;;;15.67;;
27728;SDS011;15126;42.186;24.340;2023-05-07T03:29:06;15.97;;;14.37;;
27728;SDS011;15126;42.186;24.340;2023-05-07T03:31:32;17.20;;;15.10;;
27728;SDS011;15126;42.186;24.340;2023-05-07T03:33:59;15.87;;;14.37;;
27728;SDS011;15126;42.186;24.340;2023-05-07T03:36:28;16.40;;;14.43;;
27728;SDS011;15126;42.186;24.340;2023-05-07T03:38:54;13.63;;;12.30;;
27728;SDS011;15126;42.186;24.340;2023-05-07T03:41:21;14.17;;;12.60;;
27728;SDS011;15126;42.186;24.340;2023-05-07T03:43:48;13.87;;;12.67;;
27728;SDS011;15126;42.186;24.340;2023-05-07T03:46:15;14.83;;;12.70;;
27728;SDS011;15126;42.186;24.340;2023-05-07T03:48:41;17.60;;;15.37;;
27728;SDS011;15126;42.186;24.340;2023-05-07T03:51:08;15.27;;;13.67;;
27728;SDS011;15126;42.186;24.340;2023-05-07T03:53:36;15.50;;;13.90;;
27728;SDS011;15126;42.186;24.340;2023-05-07T03:56:03;17.33;;;15.60;;
27728;SDS011;15126;42.186;24.340;2023-05-07T03:58:30;13.57;;;12.37;;
27728;SDS011;15126;42.186;24.340;2023-05-07T04:00:57;20.43;;;18.27;;
27728;SDS011;15126;42.186;24.340;2023-05-07T04:03:24;18.40;;;16.43;;
27728;SDS011;15126;42.186;24.340;2023-05-07T04:05:50;15.33;;;13.87;;
27728;SDS011;15126;42.186;24.340;2023-05-07T04:08:17;12.70;;;11.20;;
27728;SDS011;15126;42.186;24.340;2023-05-07T04:10:45;12.43;;;11.13;;
27728;SDS011;15126;42.186;24.340;2023-05-07T04:13:12;10.97;;;9.97;;
27728;SDS011;15126;42.186;24.340;2023-05-07T04:15:39;12.30;;;10.10;;
27728;SDS011;15126;42.186;24.340;2023-05-07T04:18:06;10.40;;;9.30;;
27728;SDS011;15126;42.186;24.340;2023-05-07T04:20:33;11.13;;;10.03;;
27728;SDS011;15126;42.186;24.340;2023-05-07T04:23:01;11.37;;;10.03;;
27728;SDS011;15126;42.186;24.340;2023-05-07T04:25:28;10.03;;;9.03;;
27728;SDS011;15126;42.186;24.340;2023-05-07T04:27:57;11.50;;;9.50;;
27728;SDS011;15126;42.186;24.340;2023-05-07T04:30:24;10.67;;;9.50;;
27728;SDS011;15126;42.186;24.340;2023-05-07T04:32:50;11.10;;;10.00;;
27728;SDS011;15126;42.186;24.340;2023-05-07T04:35:17;11.20;;;9.73;;
27728;SDS011;15126;42.186;24.340;2023-05-07T04:37:44;11.90;;;10.73;;
27728;SDS011;15126;42.186;24.340;2023-05-07T04:40:11;11.03;;;10.13;;
27728;SDS011;15126;42.186;24.340;2023-05-07T04:42:38;14.07;;;12.23;;
27728;SDS011;15126;42.186;24.340;2023-05-07T04:45:07;12.27;;;11.17;;
27728;SDS011;15126;42.186;24.340;2023-05-07T04:47:35;11.60;;;10.40;;
27728;SDS011;15126;42.186;24.340;2023-05-07T04:50:02;12.27;;;10.50;;
27728;SDS011;15126;42.186;24.340;2023-05-07T04:52:29;11.73;;;9.47;;
27728;SDS011;15126;42.186;24.340;2023-05-07T04:54:56;11.37;;;10.27;;
27728;SDS011;15126;42.186;24.340;2023-05-07T04:57:26;10.97;;;9.97;;
27728;SDS011;15126;42.186;24.340;2023-05-07T04:59:53;13.40;;;9.90;;
27728;SDS011;15126;42.186;24.340;2023-05-07T05:02:21;13.80;;;9.93;;
27728;SDS011;15126;42.186;24.340;2023-05-07T05:04:48;11.57;;;8.93;;
27728;SDS011;15126;42.186;24.340;2023-05-07T05:07:15;11.33;;;10.17;;
27728;SDS011;15126;42.186;24.340;2023-05-07T05:09:42;11.53;;;10.33;;
27728;SDS011;15126;42.186;24.340;2023-05-07T05:12:09;13.00;;;11.70;;
27728;SDS011;15126;42.186;24.340;2023-05-07T05:14:36;12.97;;;11.77;;
27728;SDS011;15126;42.186;24.340;2023-05-07T05:17:03;12.53;;;11.47;;
27728;SDS011;15126;42.186;24.340;2023-05-07T05:19:31;12.03;;;10.80;;
27728;SDS011;15126;42.186;24.340;2023-05-07T05:21:58;12.47;;;11.27;;
27728;SDS011;15126;42.186;24.340;2023-05-07T05:24:26;13.10;;;11.80;;
27728;SDS011;15126;42.186;24.340;2023-05-07T05:26:52;12.80;;;11.70;;
27728;SDS011;15126;42.186;24.340;2023-05-07T05:29:19;14.67;;;13.17;;
27728;SDS011;15126;42.186;24.340;2023-05-07T05:31:46;13.43;;;11.13;;
27728;SDS011;15126;42.186;24.340;2023-05-07T05:34:13;12.30;;;10.97;;
27728;SDS011;15126;42.186;24.340;2023-05-07T05:36:43;11.43;;;10.43;;
27728;SDS011;15126;42.186;24.340;2023-05-07T05:39:10;14.23;;;12.87;;
27728;SDS011;15126;42.186;24.340;2023-05-07T05:41:38;12.37;;;9.93;;
27728;SDS011;15126;42.186;24.340;2023-05-07T05:44:05;11.70;;;10.60;;
27728;SDS011;15126;42.186;24.340;2023-05-07T05:46:32;12.30;;;10.60;;
27728;SDS011;15126;42.186;24.340;2023-05-07T05:48:59;10.63;;;9.73;;
27728;SDS011;15126;42.186;24.340;2023-05-07T05:51:25;18.37;;;13.13;;
27728;SDS011;15126;42.186;24.340;2023-05-07T05:53:54;13.07;;;11.70;;
27728;SDS011;15126;42.186;24.340;2023-05-07T05:56:20;11.07;;;10.10;;
27728;SDS011;15126;42.186;24.340;2023-05-07T05:58:47;11.10;;;9.97;;
27728;SDS011;15126;42.186;24.340;2023-05-07T06:01:14;12.03;;;8.93;;
27728;SDS011;15126;42.186;24.340;2023-05-07T06:03:41;10.53;;;9.33;;
27728;SDS011;15126;42.186;24.340;2023-05-07T06:06:07;10.70;;;9.60;;
27728;SDS011;15126;42.186;24.340;2023-05-07T06:08:34;11.00;;;9.77;;
27728;SDS011;15126;42.186;24.340;2023-05-07T06:11:02;11.13;;;8.50;;
27728;SDS011;15126;42.186;24.340;2023-05-07T06:13:29;7.90;;;7.00;;
27728;SDS011;15126;42.186;24.340;2023-05-07T06:15:56;7.73;;;7.13;;
27728;SDS011;15126;42.186;24.340;2023-05-07T06:18:22;7.83;;;7.10;;
27728;SDS011;15126;42.186;24.340;2023-05-07T06:20:50;7.70;;;7.00;;
27728;SDS011;15126;42.186;24.340;2023-05-07T06:23:17;10.57;;;7.47;;
27728;SDS011;15126;42.186;24.340;2023-05-07T06:25:47;8.20;;;6.27;;
27728;SDS011;15126;42.186;24.340;2023-05-07T06:28:16;14.13;;;7.20;;
27728;SDS011;15126;42.186;24.340;2023-05-07T06:30:43;9.10;;;7.20;;
27728;SDS011;15126;42.186;24.340;2023-05-07T06:33:10;8.27;;;6.80;;
27728;SDS011;15126;42.186;24.340;2023-05-07T06:35:37;10.83;;;7.57;;
27728;SDS011;15126;42.186;24.340;2023-05-07T06:38:04;10.17;;;6.53;;
27728;SDS011;15126;42.186;24.340;2023-05-07T06:40:30;7.90;;;6.77;;
27728;SDS011;15126;42.186;24.340;2023-05-07T06:42:57;8.03;;;6.43;;
27728;SDS011;15126;42.186;24.340;2023-05-07T06:45:25;8.17;;;7.37;;
27728;SDS011;15126;42.186;24.340;2023-05-07T06:47:52;8.13;;;6.40;;
27728;SDS011;15126;42.186;24.340;2023-05-07T06:50:19;8.40;;;6.23;;
27728;SDS011;15126;42.186;24.340;2023-05-07T06:52:46;7.43;;;6.40;;
27728;SDS011;15126;42.186;24.340;2023-05-07T06:55:13;6.43;;;5.73;;
27728;SDS011;15126;42.186;24.340;2023-05-07T06:57:40;6.80;;;6.27;;
27728;SDS011;15126;42.186;24.340;2023-05-07T07:00:07;10.17;;;8.77;;
27728;SDS011;15126;42.186;24.340;2023-05-07T07:02:36;7.97;;;6.60;;
27728;SDS011;15126;42.186;24.340;2023-05-07T07:05:03;10.23;;;7.13;;
27728;SDS011;15126;42.186;24.340;2023-05-07T07:07:30;8.43;;;7.00;;
27728;SDS011;15126;42.186;24.340;2023-05-07T07:09:57;7.37;;;6.03;;
27728;SDS011;15126;42.186;24.340;2023-05-07T07:12:24;8.47;;;5.87;;
27728;SDS011;15126;42.186;24.340;2023-05-07T07:14:51;9.03;;;6.13;;
27728;SDS011;15126;42.186;24.340;2023-05-07T07:17:17;11.00;;;6.73;;
27728;SDS011;15126;42.186;24.340;2023-05-07T07:19:46;7.50;;;6.30;;
27728;SDS011;15126;42.186;24.340;2023-05-07T07:22:12;6.63;;;5.73;;
27728;SDS011;15126;42.186;24.340;2023-05-07T07:24:39;5.77;;;5.37;;
27728;SDS011;15126;42.186;24.340;2023-05-07T07:27:06;6.53;;;5.97;;
27728;SDS011;15126;42.186;24.340;2023-05-07T07:29:33;6.13;;;5.63;;
27728;SDS011;15126;42.186;24.340;2023-05-07T07:31:59;6.53;;;6.03;;
27728;SDS011;15126;42.186;24.340;2023-05-07T07:34:26;8.73;;;6.50;;
27728;SDS011;15126;42.186;24.340;2023-05-07T07:36:54;9.37;;;5.97;;
27728;SDS011;15126;42.186;24.340;2023-05-07T07:39:21;10.03;;;6.53;;
27728;SDS011;15126;42.186;24.340;2023-05-07T07:41:48;6.77;;;6.03;;
27728;SDS011;15126;42.186;24.340;2023-05-07T07:44:14;7.87;;;6.60;;
27728;SDS011;15126;42.186;24.340;2023-05-07T07:46:42;7.13;;;6.43;;
27728;SDS011;15126;42.186;24.340;2023-05-07T07:49:09;8.57;;;6.67;;
27728;SDS011;15126;42.186;24.340;2023-05-07T07:51:35;8.70;;;6.10;;
27728;SDS011;15126;42.186;24.340;2023-05-07T07:54:04;9.40;;;6.40;;
27728;SDS011;15126;42.186;24.340;2023-05-07T07:56:31;6.20;;;5.33;;
27728;SDS011;15126;42.186;24.340;2023-05-07T07:58:58;6.63;;;5.87;;
27728;SDS011;15126;42.186;24.340;2023-05-07T08:01:25;6.03;;;5.43;;
27728;SDS011;15126;42.186;24.340;2023-05-07T08:03:52;6.53;;;4.70;;
27728;SDS011;15126;42.186;24.340;2023-05-07T08:06:19;5.53;;;5.03;;
27728;SDS011;15126;42.186;24.340;2023-05-07T08:08:46;6.50;;;5.53;;
27728;SDS011;15126;42.186;24.340;2023-05-07T08:11:14;10.83;;;6.10;;
27728;SDS011;15126;42.186;24.340;2023-05-07T08:13:41;8.20;;;5.03;;
27728;SDS011;15126;42.186;24.340;2023-05-07T08:16:07;7.40;;;5.50;;
27728;SDS011;15126;42.186;24.340;2023-05-07T08:18:34;5.83;;;5.30;;
27728;SDS011;15126;42.186;24.340;2023-05-07T08:21:01;6.50;;;5.80;;
27728;SDS011;15126;42.186;24.340;2023-05-07T08:23:28;5.97;;;5.30;;
27728;SDS011;15126;42.186;24.340;2023-05-07T08:25:55;6.43;;;5.10;;
27728;SDS011;15126;42.186;24.340;2023-05-07T08:28:23;5.87;;;5.03;;
27728;SDS011;15126;42.186;24.340;2023-05-07T08:30:50;5.10;;;4.73;;
27728;SDS011;15126;42.186;24.340;2023-05-07T08:33:17;7.43;;;5.30;;
27728;SDS011;15126;42.186;24.340;2023-05-07T08:35:44;8.47;;;5.07;;
27728;SDS011;15126;42.186;24.340;2023-05-07T08:38:11;6.13;;;5.53;;
27728;SDS011;15126;42.186;24.340;2023-05-07T08:40:38;9.00;;;5.53;;
27728;SDS011;15126;42.186;24.340;2023-05-07T08:43:06;7.50;;;4.73;;
27728;SDS011;15126;42.186;24.340;2023-05-07T08:45:35;9.67;;;5.87;;
27728;SDS011;15126;42.186;24.340;2023-05-07T08:48:05;5.97;;;5.37;;
27728;SDS011;15126;42.186;24.340;2023-05-07T08:50:35;6.87;;;5.13;;
27728;SDS011;15126;42.186;24.340;2023-05-07T08:53:02;5.43;;;5.00;;
27728;SDS011;15126;42.186;24.340;2023-05-07T08:55:30;6.10;;;5.20;;
27728;SDS011;15126;42.186;24.340;2023-05-07T08:57:58;7.40;;;6.00;;
27728;SDS011;15126;42.186;24.340;2023-05-07T09:00:25;6.73;;;5.33;;
27728;SDS011;15126;42.186;24.340;2023-05-07T09:02:53;7.70;;;4.97;;
27728;SDS011;15126;42.186;24.340;2023-05-07T09:05:20;9.27;;;5.17;;
27728;SDS011;15126;42.186;24.340;2023-05-07T09:07:47;5.40;;;4.87;;
27728;SDS011;15126;42.186;24.340;2023-05-07T09:10:14;17.20;;;6.50;;
27728;SDS011;15126;42.186;24.340;2023-05-07T09:12:41;7.13;;;5.47;;
27728;SDS011;15126;42.186;24.340;2023-05-07T09:15:08;6.80;;;5.10;;
27728;SDS011;15126;42.186;24.340;2023-05-07T09:17:35;6.13;;;5.50;;
27728;SDS011;15126;42.186;24.340;2023-05-07T09:20:04;5.40;;;4.87;;
27728;SDS011;15126;42.186;24.340;2023-05-07T09:22:32;4.10;;;3.80;;
27728;SDS011;15126;42.186;24.340;2023-05-07T09:24:59;5.90;;;4.33;;
27728;SDS011;15126;42.186;24.340;2023-05-07T09:27:26;5.20;;;4.80;;
27728;SDS011;15126;42.186;24.340;2023-05-07T09:29:52;5.97;;;5.40;;
27728;SDS011;15126;42.186;24.340;2023-05-07T09:32:19;7.80;;;5.27;;
27728;SDS011;15126;42.186;24.340;2023-05-07T09:34:46;5.20;;;4.70;;
27728;SDS011;15126;42.186;24.340;2023-05-07T09:37:14;15.33;;;5.60;;
27728;SDS011;15126;42.186;24.340;2023-05-07T09:39:43;4.87;;;4.47;;
27728;SDS011;15126;42.186;24.340;2023-05-07T09:42:11;6.80;;;4.87;;
27728;SDS011;15126;42.186;24.340;2023-05-07T09:44:40;6.07;;;5.47;;
27728;SDS011;15126;42.186;24.340;2023-05-07T09:47:07;7.27;;;5.83;;
27728;SDS011;15126;42.186;24.340;2023-05-07T09:49:35;6.63;;;5.27;;
27728;SDS011;15126;42.186;24.340;2023-05-07T09:52:03;5.37;;;4.97;;
27728;SDS011;15126;42.186;24.340;2023-05-07T09:54:33;6.43;;;4.70;;
27728;SDS011;15126;42.186;24.340;2023-05-07T09:57:01;5.80;;;5.27;;
27728;SDS011;15126;42.186;24.340;2023-05-07T09:59:28;6.07;;;4.63;;
27728;SDS011;15126;42.186;24.340;2023-05-07T10:01:57;5.87;;;4.90;;
27728;SDS011;15126;42.186;24.340;2023-05-07T10:04:25;6.03;;;5.53;;
27728;SDS011;15126;42.186;24.340;2023-05-07T10:06:52;6.23;;;4.87;;
27728;SDS011;15126;42.186;24.340;2023-05-07T10:09:20;5.97;;;4.60;;
27728;SDS011;15126;42.186;24.340;2023-05-07T10:11:49;5.37;;;4.27;;
27728;SDS011;15126;42.186;24.340;2023-05-07T10:14:16;4.60;;;4.20;;
27728;SDS011;15126;42.186;24.340;2023-05-07T10:16:44;8.37;;;4.93;;
27728;SDS011;15126;42.186;24.340;2023-05-07T10:19:11;8.03;;;4.90;;
27728;SDS011;15126;42.186;24.340;2023-05-07T10:21:39;7.57;;;4.87;;
27728;SDS011;15126;42.186;24.340;2023-05-07T10:24:10;5.57;;;4.33;;
27728;SDS011;15126;42.186;24.340;2023-05-07T10:26:43;5.83;;;4.80;;
27728;SDS011;15126;42.186;24.340;2023-05-07T10:29:14;6.67;;;5.13;;
27728;SDS011;15126;42.186;24.340;2023-05-07T10:31:48;6.07;;;4.33;;
27728;SDS011;15126;42.186;24.340;2023-05-07T10:34:22;9.23;;;4.50;;
27728;SDS011;15126;42.186;24.340;2023-05-07T10:36:52;4.57;;;4.10;;
27728;SDS011;15126;42.186;24.340;2023-05-07T10:39:21;6.20;;;4.37;;
27728;SDS011;15126;42.186;24.340;2023-05-07T10:41:48;5.10;;;4.00;;
27728;SDS011;15126;42.186;24.340;2023-05-07T10:44:25;5.53;;;4.87;;
27728;SDS011;15126;42.186;24.340;2023-05-07T10:47:04;6.00;;;4.37;;
27728;SDS011;15126;42.186;24.340;2023-05-07T10:49:34;6.27;;;5.03;;
27728;SDS011;15126;42.186;24.340;2023-05-07T10:52:14;6.83;;;4.57;;
27728;SDS011;15126;42.186;24.340;2023-05-07T10:54:42;6.43;;;4.13;;
27728;SDS011;15126;42.186;24.340;2023-05-07T11:00:02;6.43;;;3.73;;
27728;SDS011;15126;42.186;24.340;2023-05-07T11:05:33;4.30;;;3.90;;
27728;SDS011;15126;42.186;24.340;2023-05-07T11:08:00;4.23;;;3.87;;
27728;SDS011;15126;42.186;24.340;2023-05-07T11:16:19;7.27;;;4.73;;
27728;SDS011;15126;42.186;24.340;2023-05-07T11:18:47;5.57;;;3.60;;
27728;SDS011;15126;42.186;24.340;2023-05-07T11:24:04;3.73;;;3.37;;
27728;SDS011;15126;42.186;24.340;2023-05-07T11:26:41;6.47;;;3.93;;
27728;SDS011;15126;42.186;24.340;2023-05-07T11:29:12;6.77;;;3.97;;
27728;SDS011;15126;42.186;24.340;2023-05-07T11:31:42;4.90;;;4.43;;
27728;SDS011;15126;42.186;24.340;2023-05-07T11:34:09;6.13;;;4.57;;
27728;SDS011;15126;42.186;24.340;2023-05-07T11:36:40;6.07;;;3.50;;
27728;SDS011;15126;42.186;24.340;2023-05-07T11:39:29;4.97;;;3.70;;
27728;SDS011;15126;42.186;24.340;2023-05-07T11:41:58;3.90;;;3.60;;
27728;SDS011;15126;42.186;24.340;2023-05-07T11:44:25;5.73;;;4.47;;
27728;SDS011;15126;42.186;24.340;2023-05-07T11:46:53;6.17;;;4.03;;
27728;SDS011;15126;42.186;24.340;2023-05-07T11:49:20;7.20;;;4.30;;
27728;SDS011;15126;42.186;24.340;2023-05-07T11:51:46;4.17;;;3.23;;
27728;SDS011;15126;42.186;24.340;2023-05-07T11:54:15;4.67;;;3.87;;
27728;SDS011;15126;42.186;24.340;2023-05-07T11:56:43;3.57;;;3.37;;
27728;SDS011;15126;42.186;24.340;2023-05-07T11:59:12;4.53;;;3.87;;
27728;SDS011;15126;42.186;24.340;2023-05-07T12:01:45;8.80;;;4.53;;
27728;SDS011;15126;42.186;24.340;2023-05-07T12:04:13;5.07;;;3.70;;
27728;SDS011;15126;42.186;24.340;2023-05-07T12:06:40;7.77;;;4.17;;
27728;SDS011;15126;42.186;24.340;2023-05-07T12:09:07;4.93;;;4.17;;
27728;SDS011;15126;42.186;24.340;2023-05-07T12:11:36;8.73;;;4.10;;
27728;SDS011;15126;42.186;24.340;2023-05-07T12:14:05;9.07;;;6.67;;
27728;SDS011;15126;42.186;24.340;2023-05-07T12:16:31;4.40;;;4.00;;
27728;SDS011;15126;42.186;24.340;2023-05-07T12:18:58;3.27;;;3.07;;
27728;SDS011;15126;42.186;24.340;2023-05-07T12:21:27;4.57;;;3.60;;
27728;SDS011;15126;42.186;24.340;2023-05-07T12:23:55;6.60;;;4.07;;
27728;SDS011;15126;42.186;24.340;2023-05-07T12:26:22;4.07;;;3.70;;
27728;SDS011;15126;42.186;24.340;2023-05-07T12:28:49;5.57;;;3.53;;
27728;SDS011;15126;42.186;24.340;2023-05-07T12:31:16;4.67;;;3.87;;
27728;SDS011;15126;42.186;24.340;2023-05-07T12:33:43;4.70;;;3.87;;
27728;SDS011;15126;42.186;24.340;2023-05-07T12:36:11;4.67;;;4.27;;
27728;SDS011;15126;42.186;24.340;2023-05-07T12:38:40;7.27;;;3.97;;
27728;SDS011;15126;42.186;24.340;2023-05-07T12:41:07;6.17;;;4.17;;
27728;SDS011;15126;42.186;24.340;2023-05-07T12:43:36;4.70;;;3.87;;
27728;SDS011;15126;42.186;24.340;2023-05-07T12:46:04;5.70;;;3.90;;
27728;SDS011;15126;42.186;24.340;2023-05-07T12:48:32;3.90;;;3.60;;
27728;SDS011;15126;42.186;24.340;2023-05-07T12:51:00;4.37;;;4.03;;
27728;SDS011;15126;42.186;24.340;2023-05-07T12:53:28;3.80;;;3.50;;
27728;SDS011;15126;42.186;24.340;2023-05-07T12:55:57;5.07;;;4.57;;
27728;SDS011;15126;42.186;24.340;2023-05-07T12:58:26;6.77;;;4.47;;
27728;SDS011;15126;42.186;24.340;2023-05-07T13:00:54;5.70;;;3.63;;
27728;SDS011;15126;42.186;24.340;2023-05-07T13:03:24;5.33;;;4.13;;
27728;SDS011;15126;42.186;24.340;2023-05-07T13:05:52;5.93;;;4.27;;
27728;SDS011;15126;42.186;24.340;2023-05-07T13:08:25;5.33;;;3.73;;
27728;SDS011;15126;42.186;24.340;2023-05-07T13:10:53;5.73;;;4.33;;
27728;SDS011;15126;42.186;24.340;2023-05-07T13:13:21;6.37;;;3.80;;
27728;SDS011;15126;42.186;24.340;2023-05-07T13:15:48;4.30;;;4.00;;
27728;SDS011;15126;42.186;24.340;2023-05-07T13:18:15;4.90;;;4.40;;
27728;SDS011;15126;42.186;24.340;2023-05-07T13:20:42;5.00;;;4.43;;
27728;SDS011;15126;42.186;24.340;2023-05-07T13:23:09;4.27;;;3.57;;
27728;SDS011;15126;42.186;24.340;2023-05-07T13:25:35;4.43;;;3.63;;
27728;SDS011;15126;42.186;24.340;2023-05-07T13:28:02;4.03;;;3.73;;
27728;SDS011;15126;42.186;24.340;2023-05-07T13:30:31;5.50;;;4.10;;
27728;SDS011;15126;42.186;24.340;2023-05-07T13:32:57;5.67;;;4.37;;
27728;SDS011;15126;42.186;24.340;2023-05-07T13:35:24;5.27;;;4.30;;
27728;SDS011;15126;42.186;24.340;2023-05-07T13:37:51;3.97;;;3.63;;
27728;SDS011;15126;42.186;24.340;2023-05-07T13:40:19;7.33;;;4.73;;
27728;SDS011;15126;42.186;24.340;2023-05-07T13:42:46;4.77;;;4.33;;
27728;SDS011;15126;42.186;24.340;2023-05-07T13:45:13;4.10;;;3.70;;
27728;SDS011;15126;42.186;24.340;2023-05-07T13:47:41;8.23;;;4.30;;
27728;SDS011;15126;42.186;24.340;2023-05-07T13:50:09;4.37;;;3.97;;
27728;SDS011;15126;42.186;24.340;2023-05-07T13:52:39;4.23;;;3.50;;
27728;SDS011;15126;42.186;24.340;2023-05-07T13:55:08;4.40;;;4.00;;
27728;SDS011;15126;42.186;24.340;2023-05-07T13:57:35;4.70;;;3.97;;
27728;SDS011;15126;42.186;24.340;2023-05-07T14:00:02;5.40;;;3.70;;
27728;SDS011;15126;42.186;24.340;2023-05-07T14:02:30;3.90;;;3.60;;
27728;SDS011;15126;42.186;24.340;2023-05-07T14:04:58;5.63;;;4.30;;
27728;SDS011;15126;42.186;24.340;2023-05-07T14:07:25;7.10;;;3.80;;
27728;SDS011;15126;42.186;24.340;2023-05-07T14:09:52;3.87;;;3.47;;
27728;SDS011;15126;42.186;24.340;2023-05-07T14:12:18;5.60;;;4.67;;
27728;SDS011;15126;42.186;24.340;2023-05-07T14:14:45;5.20;;;4.07;;
27728;SDS011;15126;42.186;24.340;2023-05-07T14:17:14;8.40;;;3.77;;
27728;SDS011;15126;42.186;24.340;2023-05-07T14:19:41;4.70;;;3.83;;
27728;SDS011;15126;42.186;24.340;2023-05-07T14:22:10;4.37;;;3.97;;
27728;SDS011;15126;42.186;24.340;2023-05-07T14:24:36;4.47;;;4.13;;
27728;SDS011;15126;42.186;24.340;2023-05-07T14:27:04;6.17;;;3.80;;
27728;SDS011;15126;42.186;24.340;2023-05-07T14:29:31;4.07;;;3.73;;
27728;SDS011;15126;42.186;24.340;2023-05-07T14:32:00;4.57;;;4.13;;
27728;SDS011;15126;42.186;24.340;2023-05-07T14:34:27;4.80;;;4.20;;
27728;SDS011;15126;42.186;24.340;2023-05-07T14:36:54;6.13;;;4.63;;
27728;SDS011;15126;42.186;24.340;2023-05-07T14:39:22;3.70;;;3.43;;
27728;SDS011;15126;42.186;24.340;2023-05-07T14:41:50;5.87;;;4.13;;
27728;SDS011;15126;42.186;24.340;2023-05-07T14:44:17;4.53;;;4.20;;